createdAt,value
2018-03-29T00:00:16.291Z,99.99
2018-03-29T00:01:16.254Z,99.99
2018-03-29T00:02:16.222Z,99.99
2018-03-29T00:03:16.220Z,99.99
2018-03-29T00:04:16.259Z,99.99
2018-03-29T00:05:16.173Z,99.99
2018-03-29T00:06:16.179Z,99.99
2018-03-29T00:07:16.139Z,99.99
2018-03-29T00:08:16.119Z,99.99
2018-03-29T00:09:16.118Z,99.99
2018-03-29T00:10:16.057Z,99.99
2018-03-29T00:11:16.021Z,99.99
2018-03-29T00:12:16.010Z,99.99
2018-03-29T00:13:15.995Z,99.99
2018-03-29T00:14:16.013Z,99.99
2018-03-29T00:15:15.949Z,99.99
2018-03-29T00:16:15.909Z,99.99
2018-03-29T00:17:15.910Z,99.99
2018-03-29T00:18:15.865Z,99.99
2018-03-29T00:19:15.887Z,99.99
2018-03-29T00:20:15.840Z,99.99
2018-03-29T00:21:15.803Z,99.99
2018-03-29T00:22:15.795Z,99.99
2018-03-29T00:23:15.749Z,99.99
2018-03-29T00:24:15.737Z,99.99
2018-03-29T00:25:15.717Z,99.99
2018-03-29T00:26:15.707Z,99.99
2018-03-29T00:27:15.677Z,99.99
2018-03-29T00:28:15.652Z,99.99
2018-03-29T00:29:15.631Z,99.99
2018-03-29T00:30:15.598Z,99.99
2018-03-29T00:31:15.584Z,99.99
2018-03-29T00:32:15.558Z,99.99
2018-03-29T00:33:15.571Z,99.99
2018-03-29T00:34:15.506Z,99.99
2018-03-29T00:35:15.487Z,99.99
2018-03-29T00:36:15.511Z,99.99
2018-03-29T00:37:15.473Z,99.99
2018-03-29T00:38:15.474Z,99.99
2018-03-29T00:39:15.425Z,99.99
2018-03-29T00:40:15.419Z,99.99
2018-03-29T00:41:15.384Z,99.58
2018-03-29T00:42:15.357Z,98.07
2018-03-29T00:43:15.359Z,97.78
2018-03-29T00:44:15.278Z,97.69
2018-03-29T00:45:15.304Z,97.02
2018-03-29T00:46:15.272Z,96.55
2018-03-29T00:47:15.275Z,96.55
2018-03-29T00:48:15.248Z,97.21
2018-03-29T00:49:15.175Z,96.73
2018-03-29T00:50:15.215Z,97.12
2018-03-29T00:51:15.142Z,97.12
2018-03-29T00:52:15.129Z,96.64
2018-03-29T00:53:15.114Z,96.92
2018-03-29T00:54:15.062Z,96.64
2018-03-29T00:55:15.064Z,95.60
2018-03-29T00:56:15.012Z,95.69
2018-03-29T00:57:15.025Z,95.88
2018-03-29T00:58:14.976Z,95.69
2018-03-29T00:59:14.973Z,95.12
2018-03-29T01:00:14.943Z,94.93
2018-03-29T01:01:14.902Z,94.74
2018-03-29T01:02:14.915Z,94.84
2018-03-29T01:03:14.859Z,95.12
2018-03-29T01:04:14.870Z,94.56
2018-03-29T01:05:14.845Z,95.31
2018-03-29T01:06:14.895Z,95.79
2018-03-29T01:07:14.764Z,96.26
2018-03-29T01:08:14.766Z,96.69
2018-03-29T01:09:14.731Z,96.92
2018-03-29T01:10:14.723Z,96.69
2018-03-29T01:11:14.747Z,96.97
2018-03-29T01:12:14.703Z,97.16
2018-03-29T01:13:14.659Z,97.16
2018-03-29T01:14:14.610Z,96.88
2018-03-29T01:15:14.598Z,96.69
2018-03-29T01:16:14.602Z,96.50
2018-03-29T01:17:14.551Z,96.78
2018-03-29T01:18:14.544Z,96.22
2018-03-29T01:19:14.543Z,96.41
2018-03-29T01:20:15.341Z,95.93
2018-03-29T01:21:14.475Z,96.41
2018-03-29T01:22:14.434Z,96.22
2018-03-29T01:23:14.488Z,96.78
2018-03-29T01:24:14.395Z,96.50
2018-03-29T01:25:14.375Z,95.93
2018-03-29T01:26:14.342Z,95.93
2018-03-29T01:27:14.358Z,96.31
2018-03-29T01:28:14.319Z,95.93
2018-03-29T01:29:14.350Z,96.03
2018-03-29T01:30:14.297Z,95.55
2018-03-29T01:31:14.832Z,94.79
2018-03-29T01:32:14.237Z,94.98
2018-03-29T01:33:14.185Z,95.07
2018-03-29T01:34:14.161Z,95.36
2018-03-29T01:35:14.147Z,95.65
2018-03-29T01:36:14.163Z,95.07
2018-03-29T01:37:14.097Z,94.60
2018-03-29T01:38:14.080Z,95.74
2018-03-29T01:39:14.073Z,96.41
2018-03-29T01:40:14.032Z,96.03
2018-03-29T01:41:14.047Z,95.93
2018-03-29T01:42:13.977Z,95.93
2018-03-29T01:43:13.962Z,95.65
2018-03-29T01:44:13.943Z,95.74
2018-03-29T01:45:13.921Z,95.65
2018-03-29T01:46:13.891Z,96.50
2018-03-29T01:47:13.867Z,96.69
2018-03-29T01:48:13.869Z,96.69
2018-03-29T01:49:13.881Z,96.69
2018-03-29T01:50:13.820Z,96.78
2018-03-29T01:51:13.825Z,96.78
2018-03-29T01:52:13.797Z,95.93
2018-03-29T01:53:13.734Z,95.74
2018-03-29T01:54:13.719Z,96.12
2018-03-29T01:55:13.693Z,95.65
2018-03-29T01:56:13.674Z,96.50
2018-03-29T01:57:13.668Z,96.50
2018-03-29T01:58:13.615Z,95.93
2018-03-29T01:59:13.614Z,96.59
2018-03-29T02:00:13.591Z,96.69
2018-03-29T02:01:13.567Z,96.69
2018-03-29T02:02:13.535Z,96.31
2018-03-29T02:03:13.586Z,96.78
2018-03-29T02:04:13.499Z,96.69
2018-03-29T02:05:13.476Z,96.97
2018-03-29T02:06:13.448Z,95.84
2018-03-29T02:07:13.433Z,95.45
2018-03-29T02:08:13.408Z,95.36
2018-03-29T02:09:13.370Z,95.74
2018-03-29T02:10:13.364Z,94.79
2018-03-29T02:11:13.327Z,94.98
2018-03-29T02:12:13.345Z,95.07
2018-03-29T02:13:13.310Z,96.12
2018-03-29T02:14:13.270Z,95.65
2018-03-29T02:15:13.263Z,94.60
2018-03-29T02:16:13.215Z,94.70
2018-03-29T02:17:13.209Z,94.42
2018-03-29T02:18:13.194Z,94.60
2018-03-29T02:19:13.181Z,95.26
2018-03-29T02:20:13.122Z,95.07
2018-03-29T02:21:13.156Z,94.60
2018-03-29T02:22:13.070Z,94.70
2018-03-29T02:23:13.049Z,94.70
2018-03-29T02:24:13.084Z,95.07
2018-03-29T02:25:13.031Z,94.23
2018-03-29T02:26:13.005Z,95.36
2018-03-29T02:27:12.962Z,94.42
2018-03-29T02:28:12.957Z,94.42
2018-03-29T02:29:12.972Z,94.65
2018-03-29T02:30:12.894Z,95.26
2018-03-29T02:31:12.868Z,94.79
2018-03-29T02:32:12.861Z,95.26
2018-03-29T02:33:12.833Z,95.26
2018-03-29T02:34:12.800Z,95.65
2018-03-29T02:35:12.808Z,95.50
2018-03-29T02:36:12.813Z,94.84
2018-03-29T02:37:12.763Z,95.03
2018-03-29T02:38:12.769Z,94.56
2018-03-29T02:39:12.750Z,94.84
2018-03-29T02:40:12.700Z,94.93
2018-03-29T02:41:12.735Z,94.84
2018-03-29T02:42:12.673Z,94.65
2018-03-29T02:43:12.623Z,94.84
2018-03-29T02:44:12.613Z,94.93
2018-03-29T02:45:12.558Z,94.84
2018-03-29T02:46:12.556Z,95.22
2018-03-29T02:47:12.535Z,95.69
2018-03-29T02:48:12.501Z,96.36
2018-03-29T02:49:12.476Z,95.98
2018-03-29T02:50:12.498Z,96.17
2018-03-29T02:51:12.516Z,95.98
2018-03-29T02:52:12.446Z,95.50
2018-03-29T02:53:12.412Z,96.07
2018-03-29T02:54:12.422Z,95.69
2018-03-29T02:55:12.406Z,96.17
2018-03-29T02:56:12.387Z,96.92
2018-03-29T02:57:12.308Z,96.64
2018-03-29T02:58:12.321Z,96.55
2018-03-29T02:59:12.262Z,96.97
2018-03-29T03:00:12.265Z,97.16
2018-03-29T03:01:12.218Z,98.30
2018-03-29T03:02:12.181Z,98.30
2018-03-29T03:03:12.195Z,98.49
2018-03-29T03:04:12.138Z,98.39
2018-03-29T03:05:12.151Z,98.77
2018-03-29T03:06:12.088Z,99.33
2018-03-29T03:07:12.099Z,98.86
2018-03-29T03:08:12.047Z,99.62
2018-03-29T03:09:12.040Z,99.52
2018-03-29T03:10:11.988Z,99.71
2018-03-29T03:11:11.981Z,99.99
2018-03-29T03:12:11.964Z,99.81
2018-03-29T03:13:11.960Z,99.99
2018-03-29T03:14:11.931Z,99.99
2018-03-29T03:15:11.900Z,99.99
2018-03-29T03:16:11.866Z,99.99
2018-03-29T03:17:11.840Z,99.99
2018-03-29T03:18:11.856Z,99.99
2018-03-29T03:19:11.810Z,99.99
2018-03-29T03:20:11.783Z,99.99
2018-03-29T03:21:12.361Z,99.99
2018-03-29T03:22:11.735Z,99.99
2018-03-29T03:23:11.765Z,99.99
2018-03-29T03:24:11.677Z,99.99
2018-03-29T03:25:11.662Z,99.99
2018-03-29T03:26:11.676Z,99.90
2018-03-29T03:27:11.609Z,99.99
2018-03-29T03:28:11.598Z,99.99
2018-03-29T03:29:11.597Z,99.99
2018-03-29T03:30:11.581Z,99.99
2018-03-29T03:31:11.525Z,99.62
2018-03-29T03:32:11.551Z,98.96
2018-03-29T03:33:11.480Z,98.86
2018-03-29T03:34:11.469Z,99.05
2018-03-29T03:35:11.419Z,98.86
2018-03-29T03:36:11.451Z,99.15
2018-03-29T03:37:11.387Z,98.86
2018-03-29T03:38:11.378Z,99.10
2018-03-29T03:39:11.332Z,99.39
2018-03-29T03:40:11.384Z,99.48
2018-03-29T03:41:11.370Z,99.52
2018-03-29T03:42:11.264Z,99.10
2018-03-29T03:43:11.258Z,99.77
2018-03-29T03:44:11.210Z,99.77
2018-03-29T03:45:11.208Z,99.20
2018-03-29T03:46:11.211Z,99.39
2018-03-29T03:47:11.153Z,99.58
2018-03-29T03:48:11.127Z,99.67
2018-03-29T03:49:14.039Z,99.10
2018-03-29T03:50:11.127Z,99.10
2018-03-29T03:51:11.898Z,99.10
2018-03-29T03:52:11.098Z,99.29
2018-03-29T03:53:11.046Z,99.52
2018-03-29T03:54:11.043Z,99.29
2018-03-29T03:55:10.997Z,99.86
2018-03-29T03:56:10.983Z,99.99
2018-03-29T03:57:10.964Z,99.77
2018-03-29T03:58:10.893Z,99.99
2018-03-29T03:59:11.052Z,99.99
2018-03-29T04:00:10.884Z,99.39
2018-03-29T04:01:10.875Z,98.82
2018-03-29T04:02:10.884Z,99.01
2018-03-29T04:03:10.811Z,98.91
2018-03-29T04:04:10.797Z,99.10
2018-03-29T04:05:10.770Z,99.20
2018-03-29T04:06:10.803Z,99.39
2018-03-29T04:07:10.728Z,98.91
2018-03-29T04:08:10.672Z,99.39
2018-03-29T04:09:10.739Z,99.39
2018-03-29T04:10:10.615Z,97.97
2018-03-29T04:11:10.654Z,98.25
2018-03-29T04:12:11.389Z,98.44
2018-03-29T04:13:10.560Z,98.16
2018-03-29T04:14:10.567Z,97.97
2018-03-29T04:15:10.565Z,98.06
2018-03-29T04:16:10.482Z,98.35
2018-03-29T04:17:10.497Z,98.16
2018-03-29T04:18:10.518Z,98.25
2018-03-29T04:19:10.397Z,97.49
2018-03-29T04:20:10.384Z,97.59
2018-03-29T04:21:10.382Z,97.68
2018-03-29T04:22:10.334Z,98.06
2018-03-29T04:23:10.347Z,98.35
2018-03-29T04:24:10.339Z,98.25
2018-03-29T04:25:10.276Z,98.35
2018-03-29T04:26:10.259Z,98.35
2018-03-29T04:27:10.245Z,98.44
2018-03-29T04:28:10.221Z,98.25
2018-03-29T04:29:10.171Z,98.54
2018-03-29T04:30:10.198Z,97.78
2018-03-29T04:31:10.171Z,97.40
2018-03-29T04:32:10.104Z,97.49
2018-03-29T04:33:10.114Z,98.25
2018-03-29T04:34:10.086Z,98.54
2018-03-29T04:35:10.053Z,98.16
2018-03-29T04:36:10.057Z,97.97
2018-03-29T04:37:10.043Z,97.59
2018-03-29T04:38:09.990Z,97.59
2018-03-29T04:39:10.007Z,98.16
2018-03-29T04:40:09.959Z,98.16
2018-03-29T04:41:09.906Z,98.35
2018-03-29T04:42:09.903Z,98.44
2018-03-29T04:43:09.890Z,98.35
2018-03-29T04:44:09.840Z,98.01
2018-03-29T04:45:09.810Z,98.16
2018-03-29T04:46:09.840Z,98.54
2018-03-29T04:47:09.760Z,99.10
2018-03-29T04:48:09.746Z,98.86
2018-03-29T04:49:09.790Z,99.52
2018-03-29T04:50:09.795Z,99.15
2018-03-29T04:51:09.676Z,99.43
2018-03-29T04:52:09.659Z,99.52
2018-03-29T04:53:09.622Z,99.71
2018-03-29T04:54:09.626Z,99.62
2018-03-29T04:55:10.314Z,99.90
2018-03-29T04:56:09.557Z,99.99
2018-03-29T04:57:09.554Z,99.99
2018-03-29T04:58:09.518Z,99.99
2018-03-29T04:59:09.488Z,99.99
2018-03-29T05:00:09.460Z,99.99
2018-03-29T05:01:09.446Z,99.99
2018-03-29T05:02:09.450Z,99.99
2018-03-29T05:03:09.431Z,99.81
2018-03-29T05:04:09.396Z,99.99
2018-03-29T05:05:09.381Z,99.99
2018-03-29T05:06:09.321Z,99.99
2018-03-29T05:07:09.316Z,99.99
2018-03-29T05:08:09.302Z,99.99
2018-03-29T05:09:09.258Z,99.99
2018-03-29T05:10:09.234Z,99.99
2018-03-29T05:11:09.226Z,99.99
2018-03-29T05:12:09.225Z,99.71
2018-03-29T05:13:09.197Z,99.24
2018-03-29T05:14:09.170Z,99.52
2018-03-29T05:15:09.134Z,99.71
2018-03-29T05:16:09.126Z,99.81
2018-03-29T05:17:09.112Z,99.43
2018-03-29T05:18:09.048Z,99.52
2018-03-29T05:19:09.020Z,99.62
2018-03-29T05:20:09.003Z,99.24
2018-03-29T05:21:08.978Z,99.62
2018-03-29T05:22:08.974Z,99.43
2018-03-29T05:23:08.961Z,99.24
2018-03-29T05:24:08.962Z,98.86
2018-03-29T05:25:08.893Z,98.86
2018-03-29T05:26:08.901Z,98.72
2018-03-29T05:27:08.860Z,98.82
2018-03-29T05:28:08.831Z,98.58
2018-03-29T05:29:08.815Z,98.82
2018-03-29T05:30:08.783Z,98.54
2018-03-29T05:31:08.804Z,98.44
2018-03-29T05:32:08.752Z,98.35
2018-03-29T05:33:08.742Z,98.25
2018-03-29T05:34:08.721Z,97.30
2018-03-29T05:35:08.685Z,97.59
2018-03-29T05:36:08.645Z,97.21
2018-03-29T05:37:08.614Z,96.92
2018-03-29T05:38:08.621Z,96.73
2018-03-29T05:39:08.569Z,96.55
2018-03-29T05:40:08.613Z,96.55
2018-03-29T05:41:08.566Z,95.88
2018-03-29T05:42:08.504Z,96.17
2018-03-29T05:43:08.458Z,96.17
2018-03-29T05:44:08.441Z,96.26
2018-03-29T05:45:08.460Z,96.17
2018-03-29T05:46:08.447Z,96.45
2018-03-29T05:47:08.406Z,96.73
2018-03-29T05:48:08.388Z,95.79
2018-03-29T05:49:08.355Z,96.26
2018-03-29T05:50:08.308Z,96.36
2018-03-29T05:51:08.268Z,95.88
2018-03-29T05:52:08.299Z,96.36
2018-03-29T05:53:08.258Z,95.88
2018-03-29T05:54:08.207Z,96.45
2018-03-29T05:55:08.223Z,95.98
2018-03-29T05:56:08.197Z,96.17
2018-03-29T05:57:08.170Z,95.60
2018-03-29T05:58:08.166Z,95.98
2018-03-29T05:59:08.131Z,95.69
2018-03-29T06:00:08.132Z,95.60
2018-03-29T06:01:08.096Z,95.60
2018-03-29T06:02:08.058Z,94.74
2018-03-29T06:03:08.064Z,94.93
2018-03-29T06:04:08.005Z,94.56
2018-03-29T06:05:07.942Z,94.46
2018-03-29T06:06:07.986Z,94.84
2018-03-29T06:07:07.933Z,94.70
2018-03-29T06:08:07.953Z,94.60
2018-03-29T06:09:07.882Z,94.70
2018-03-29T06:10:07.844Z,94.89
2018-03-29T06:11:07.850Z,94.70
2018-03-29T06:12:07.814Z,94.32
2018-03-29T06:13:07.801Z,94.04
2018-03-29T06:14:07.782Z,94.32
2018-03-29T06:15:07.777Z,94.70
2018-03-29T06:16:07.769Z,94.13
2018-03-29T06:17:07.696Z,93.75
2018-03-29T06:18:07.702Z,93.18
2018-03-29T06:19:07.653Z,94.04
2018-03-29T06:20:07.652Z,93.18
2018-03-29T06:21:07.671Z,92.71
2018-03-29T06:22:07.626Z,92.61
2018-03-29T06:23:07.659Z,92.71
2018-03-29T06:24:07.633Z,92.71
2018-03-29T06:25:07.556Z,92.71
2018-03-29T06:26:07.546Z,91.85
2018-03-29T06:27:07.526Z,91.47
2018-03-29T06:28:07.463Z,91.38
2018-03-29T06:29:07.448Z,91.47
2018-03-29T06:30:07.484Z,91.95
2018-03-29T06:31:07.434Z,91.57
2018-03-29T06:32:07.341Z,91.47
2018-03-29T06:33:07.342Z,91.38
2018-03-29T06:34:07.337Z,91.09
2018-03-29T06:35:07.303Z,91.47
2018-03-29T06:36:07.318Z,91.38
2018-03-29T06:37:07.267Z,91.76
2018-03-29T06:38:07.244Z,91.47
2018-03-29T06:39:07.262Z,91.05
2018-03-29T06:40:07.194Z,91.14
2018-03-29T06:41:07.191Z,91.05
2018-03-29T06:42:07.162Z,91.24
2018-03-29T06:43:07.158Z,90.29
2018-03-29T06:44:07.150Z,90.38
2018-03-29T06:45:07.090Z,90.10
2018-03-29T06:46:07.033Z,90.10
2018-03-29T06:47:07.025Z,90.38
2018-03-29T06:48:07.039Z,90.57
2018-03-29T06:49:07.017Z,90.38
2018-03-29T06:50:06.954Z,90.38
2018-03-29T06:51:06.987Z,90.29
2018-03-29T06:52:06.954Z,90.10
2018-03-29T06:53:06.913Z,90.38
2018-03-29T06:54:06.902Z,89.72
2018-03-29T06:55:06.906Z,89.91
2018-03-29T06:56:06.858Z,89.62
2018-03-29T06:57:06.855Z,90.19
2018-03-29T06:58:06.788Z,89.91
2018-03-29T06:59:06.791Z,90.19
2018-03-29T07:00:06.759Z,89.91
2018-03-29T07:01:06.813Z,89.72
2018-03-29T07:02:06.744Z,89.06
2018-03-29T07:03:06.720Z,88.10
2018-03-29T07:04:06.677Z,88.15
2018-03-29T07:05:06.604Z,88.15
2018-03-29T07:06:06.712Z,87.87
2018-03-29T07:07:06.622Z,87.30
2018-03-29T07:08:06.561Z,87.20
2018-03-29T07:09:06.546Z,86.63
2018-03-29T07:10:06.530Z,87.49
2018-03-29T07:11:06.588Z,87.01
2018-03-29T07:12:06.496Z,86.63
2018-03-29T07:13:06.478Z,86.16
2018-03-29T07:14:06.438Z,86.25
2018-03-29T07:15:06.400Z,86.39
2018-03-29T07:16:06.452Z,85.91
2018-03-29T07:17:06.391Z,85.25
2018-03-29T07:18:06.378Z,84.59
2018-03-29T07:19:06.318Z,83.45
2018-03-29T07:20:06.315Z,82.69
2018-03-29T07:21:06.284Z,81.93
2018-03-29T07:22:06.353Z,82.12
2018-03-29T07:23:06.264Z,82.69
2018-03-29T07:24:06.236Z,82.78
2018-03-29T07:25:06.224Z,82.03
2018-03-29T07:26:06.141Z,82.03
2018-03-29T07:27:06.157Z,81.78
2018-03-29T07:28:06.174Z,81.49
2018-03-29T07:29:06.102Z,81.59
2018-03-29T07:30:06.082Z,80.87
2018-03-29T07:31:06.103Z,79.92
2018-03-29T07:32:06.060Z,79.44
2018-03-29T07:33:06.088Z,79.01
2018-03-29T07:34:06.025Z,77.11
2018-03-29T07:35:06.002Z,74.39
2018-03-29T07:36:05.960Z,73.91
2018-03-29T07:37:05.962Z,73.06
2018-03-29T07:38:05.922Z,73.15
2018-03-29T07:39:05.885Z,72.96
2018-03-29T07:40:05.879Z,72.67
2018-03-29T07:41:05.893Z,72.45
2018-03-29T07:42:05.900Z,72.64
2018-03-29T07:43:05.918Z,73.11
2018-03-29T07:44:05.801Z,73.69
2018-03-29T07:45:05.809Z,73.78
2018-03-29T07:46:05.785Z,74.07
2018-03-29T07:47:05.787Z,73.63
2018-03-29T07:48:05.728Z,73.15
2018-03-29T07:49:05.742Z,73.15
2018-03-29T07:50:05.687Z,72.11
2018-03-29T07:51:05.634Z,71.34
2018-03-29T07:52:05.687Z,71.44
2018-03-29T07:53:05.596Z,71.82
2018-03-29T07:54:05.593Z,70.77
2018-03-29T07:55:05.568Z,70.30
2018-03-29T07:56:05.561Z,70.33
2018-03-29T07:57:05.539Z,70.62
2018-03-29T07:58:05.487Z,69.04
2018-03-29T07:59:05.498Z,67.61
2018-03-29T08:00:05.482Z,65.89
2018-03-29T08:01:05.506Z,66.43
2018-03-29T08:02:05.470Z,67.76
2018-03-29T08:03:05.466Z,68.65
2018-03-29T08:04:05.409Z,67.20
2018-03-29T08:05:05.431Z,63.70
2018-03-29T08:06:05.356Z,60.58
2018-03-29T08:07:05.349Z,58.67
2018-03-29T08:08:05.304Z,56.34
2018-03-29T08:09:05.297Z,52.75
2018-03-29T08:10:05.296Z,49.74
2018-03-29T08:11:05.303Z,47.10
2018-03-29T08:12:05.264Z,44.15
2018-03-29T08:13:05.199Z,42.25
2018-03-29T08:14:05.243Z,41.12
2018-03-29T08:15:05.255Z,41.14
2018-03-29T08:16:05.161Z,40.28
2018-03-29T08:17:05.160Z,40.93
2018-03-29T08:18:05.104Z,40.23
2018-03-29T08:19:05.113Z,40.87
2018-03-29T08:20:05.189Z,42.84
2018-03-29T08:21:05.074Z,43.39
2018-03-29T08:22:05.078Z,43.83
2018-03-29T08:23:05.086Z,44.86
2018-03-29T08:24:05.023Z,46.53
2018-03-29T08:25:05.023Z,47.75
2018-03-29T08:26:05.031Z,49.26
2018-03-29T08:27:05.015Z,50.69
2018-03-29T08:28:04.980Z,50.09
2018-03-29T08:29:04.944Z,52.07
2018-03-29T08:30:04.916Z,52.33
2018-03-29T08:31:04.935Z,53.56
2018-03-29T08:32:04.875Z,54.78
2018-03-29T08:33:05.002Z,55.44
2018-03-29T08:34:04.840Z,57.04
2018-03-29T08:35:04.842Z,57.89
2018-03-29T08:36:04.857Z,58.47
2018-03-29T08:37:04.800Z,58.08
2018-03-29T08:38:04.810Z,59.03
2018-03-29T08:39:04.796Z,59.42
2018-03-29T08:40:04.749Z,59.70
2018-03-29T08:41:04.724Z,59.03
2018-03-29T08:42:04.798Z,58.65
2018-03-29T08:43:04.726Z,59.23
2018-03-29T08:44:04.632Z,59.23
2018-03-29T08:45:04.745Z,59.23
2018-03-29T08:46:04.714Z,59.23
2018-03-29T08:47:04.608Z,59.70
2018-03-29T08:48:04.628Z,58.28
2018-03-29T08:49:04.576Z,59.42
2018-03-29T08:50:04.553Z,59.70
2018-03-29T08:51:04.546Z,59.42
2018-03-29T08:52:04.553Z,59.32
2018-03-29T08:53:04.474Z,58.56
2018-03-29T08:54:04.491Z,59.23
2018-03-29T08:55:04.486Z,58.75
2018-03-29T08:56:04.451Z,58.37
2018-03-29T08:57:04.484Z,57.89
2018-03-29T08:58:04.494Z,57.80
2018-03-29T08:59:04.423Z,57.70
2018-03-29T09:00:04.375Z,57.89
2018-03-29T09:01:04.393Z,58.28
2018-03-29T09:02:04.314Z,59.26
2018-03-29T09:03:04.313Z,59.26
2018-03-29T09:04:04.291Z,58.50
2018-03-29T09:05:04.239Z,58.21
2018-03-29T09:06:04.232Z,57.35
2018-03-29T09:07:04.195Z,57.45
2018-03-29T09:08:04.209Z,57.82
2018-03-29T09:09:04.226Z,56.21
2018-03-29T09:10:04.219Z,55.92
2018-03-29T09:11:04.143Z,56.97
2018-03-29T09:12:04.120Z,57.13
2018-03-29T09:13:04.146Z,58.28
2018-03-29T09:14:04.090Z,58.28
2018-03-29T09:15:04.044Z,59.03
2018-03-29T09:16:04.066Z,59.80
2018-03-29T09:17:04.033Z,60.66
2018-03-29T09:18:03.995Z,59.80
2018-03-29T09:19:04.044Z,59.61
2018-03-29T09:20:03.960Z,59.70
2018-03-29T09:21:03.956Z,58.28
2018-03-29T09:22:03.946Z,58.37
2018-03-29T09:23:03.891Z,59.51
2018-03-29T09:24:03.904Z,59.32
2018-03-29T09:25:03.885Z,59.23
2018-03-29T09:26:03.856Z,59.06
2018-03-29T09:27:03.859Z,58.78
2018-03-29T09:28:03.807Z,58.81
2018-03-29T09:29:03.828Z,58.14
2018-03-29T09:30:03.763Z,56.90
2018-03-29T09:31:03.774Z,56.33
2018-03-29T09:32:03.772Z,55.95
2018-03-29T09:33:03.730Z,56.33
2018-03-29T09:34:03.678Z,56.33
2018-03-29T09:35:03.688Z,56.24
2018-03-29T09:36:03.700Z,57.09
2018-03-29T09:37:03.700Z,56.17
2018-03-29T09:38:03.640Z,56.17
2018-03-29T09:39:03.591Z,56.01
2018-03-29T09:40:03.572Z,56.10
2018-03-29T09:41:03.541Z,55.27
2018-03-29T09:42:03.593Z,53.45
2018-03-29T09:43:03.518Z,51.93
2018-03-29T09:44:03.484Z,52.40
2018-03-29T09:45:03.504Z,52.62
2018-03-29T09:46:03.466Z,51.86
2018-03-29T09:47:03.426Z,52.40
2018-03-29T09:48:03.471Z,52.50
2018-03-29T09:49:03.405Z,53.17
2018-03-29T09:50:03.385Z,52.76
2018-03-29T09:51:03.366Z,52.83
2018-03-29T09:52:03.368Z,54.07
2018-03-29T09:53:03.351Z,53.78
2018-03-29T09:54:03.320Z,54.04
2018-03-29T09:55:03.307Z,53.97
2018-03-29T09:56:03.265Z,54.07
2018-03-29T09:57:03.280Z,53.62
2018-03-29T09:58:03.360Z,53.53
2018-03-29T09:59:03.200Z,52.19
2018-03-29T10:00:03.253Z,51.62
2018-03-29T10:01:03.199Z,52.38
2018-03-29T10:02:03.168Z,53.69
2018-03-29T10:03:03.150Z,54.26
2018-03-29T10:04:03.127Z,54.55
2018-03-29T10:05:03.136Z,55.41
2018-03-29T10:06:03.093Z,54.57
2018-03-29T10:07:03.137Z,53.81
2018-03-29T10:08:03.054Z,53.91
2018-03-29T10:09:03.060Z,53.62
2018-03-29T10:10:03.015Z,54.10
2018-03-29T10:11:03.012Z,53.65
2018-03-29T10:12:03.011Z,52.22
2018-03-29T10:13:02.938Z,50.59
2018-03-29T10:14:02.950Z,50.28
2018-03-29T10:15:02.935Z,51.88
2018-03-29T10:16:02.917Z,53.12
2018-03-29T10:17:02.877Z,54.26
2018-03-29T10:18:02.874Z,54.83
2018-03-29T10:19:02.847Z,55.60
2018-03-29T10:20:02.827Z,55.69
2018-03-29T10:21:02.802Z,56.07
2018-03-29T10:22:02.823Z,56.26
2018-03-29T10:23:02.781Z,55.60
2018-03-29T10:24:02.756Z,55.79
2018-03-29T10:25:02.789Z,54.83
2018-03-29T10:26:02.723Z,55.02
2018-03-29T10:27:02.725Z,54.99
2018-03-29T10:28:02.668Z,54.06
2018-03-29T10:29:02.646Z,51.89
2018-03-29T10:30:02.631Z,50.09
2018-03-29T10:31:02.624Z,47.97
2018-03-29T10:32:02.607Z,45.12
2018-03-29T10:33:02.649Z,43.68
2018-03-29T10:34:02.577Z,43.60
2018-03-29T10:35:02.545Z,42.35
2018-03-29T10:36:02.533Z,39.54
2018-03-29T10:37:02.521Z,37.62
2018-03-29T10:38:02.539Z,36.08
2018-03-29T10:39:02.492Z,35.39
2018-03-29T10:40:02.463Z,35.85
2018-03-29T10:41:02.476Z,36.49
2018-03-29T10:42:02.429Z,37.84
2018-03-29T10:43:02.443Z,37.37
2018-03-29T10:44:02.421Z,36.22
2018-03-29T10:45:02.407Z,35.70
2018-03-29T10:46:02.399Z,33.53
2018-03-29T10:47:02.371Z,31.63
2018-03-29T10:48:02.356Z,31.93
2018-03-29T10:49:02.332Z,31.81
2018-03-29T10:50:02.319Z,31.78
2018-03-29T10:51:02.332Z,32.07
2018-03-29T10:52:02.344Z,32.75
2018-03-29T10:53:02.303Z,32.71
2018-03-29T10:54:02.286Z,33.18
2018-03-29T10:55:02.293Z,33.44
2018-03-29T10:56:02.246Z,34.28
2018-03-29T10:57:02.253Z,35.97
2018-03-29T10:58:02.265Z,37.87
2018-03-29T10:59:02.229Z,39.47
2018-03-29T11:00:02.210Z,40.88
2018-03-29T11:01:02.204Z,41.27
2018-03-29T11:02:02.216Z,42.11
2018-03-29T11:03:02.152Z,43.14
2018-03-29T11:04:02.159Z,43.02
2018-03-29T11:05:02.147Z,44.15
2018-03-29T11:06:02.111Z,44.60
2018-03-29T11:07:02.102Z,45.94
2018-03-29T11:08:02.098Z,47.92
2018-03-29T11:09:02.093Z,48.57
2018-03-29T11:10:02.077Z,49.71
2018-03-29T11:11:02.057Z,50.54
2018-03-29T11:12:02.074Z,51.50
2018-03-29T11:13:02.016Z,52.42
2018-03-29T11:14:02.011Z,53.38
2018-03-29T11:15:01.998Z,53.47
2018-03-29T11:16:01.983Z,54.33
2018-03-29T11:17:01.992Z,54.49
2018-03-29T11:18:01.928Z,54.78
2018-03-29T11:19:01.903Z,55.44
2018-03-29T11:20:01.894Z,57.26
2018-03-29T11:21:01.913Z,57.13
2018-03-29T11:22:01.850Z,57.42
2018-03-29T11:23:01.851Z,59.03
2018-03-29T11:24:01.852Z,59.89
2018-03-29T11:25:01.871Z,59.51
2018-03-29T11:26:01.793Z,59.80
2018-03-29T11:27:01.800Z,59.23
2018-03-29T11:28:01.756Z,59.13
2018-03-29T11:29:01.717Z,59.13
2018-03-29T11:30:01.731Z,59.42
2018-03-29T11:31:01.685Z,59.13
2018-03-29T11:32:01.740Z,58.75
2018-03-29T11:33:01.680Z,58.97
2018-03-29T11:34:01.651Z,57.73
2018-03-29T11:35:01.617Z,58.11
2018-03-29T11:36:01.613Z,58.30
2018-03-29T11:37:01.588Z,58.40
2018-03-29T11:38:01.564Z,57.92
2018-03-29T11:39:01.550Z,57.92
2018-03-29T11:40:01.524Z,57.86
2018-03-29T11:41:01.502Z,57.00
2018-03-29T11:42:01.508Z,57.76
2018-03-29T11:43:01.452Z,57.76
2018-03-29T11:44:01.492Z,58.43
2018-03-29T11:45:01.448Z,58.24
2018-03-29T11:46:01.402Z,56.24
2018-03-29T11:47:01.386Z,55.28
2018-03-29T11:48:01.371Z,54.83
2018-03-29T11:49:01.360Z,53.97
2018-03-29T11:50:01.320Z,52.28
2018-03-29T11:51:01.334Z,52.19
2018-03-29T11:52:01.309Z,52.09
2018-03-29T11:53:01.318Z,52.55
2018-03-29T11:54:01.262Z,52.26
2018-03-29T11:55:01.249Z,52.73
2018-03-29T11:56:01.232Z,53.59
2018-03-29T11:57:01.211Z,53.69
2018-03-29T11:58:01.172Z,53.59
2018-03-29T11:59:01.164Z,53.31
2018-03-29T12:00:01.149Z,54.04
2018-03-29T12:01:01.149Z,55.66
2018-03-29T12:02:01.115Z,56.62
2018-03-29T12:03:01.109Z,56.71
2018-03-29T12:04:01.069Z,56.26
2018-03-29T12:05:01.058Z,54.48
2018-03-29T12:06:01.031Z,51.83
2018-03-29T12:07:01.026Z,49.30
2018-03-29T12:08:01.036Z,47.63
2018-03-29T12:09:00.972Z,45.12
2018-03-29T12:10:00.948Z,40.77
2018-03-29T12:11:00.928Z,38.41
2018-03-29T12:12:00.939Z,37.15
2018-03-29T12:13:00.916Z,37.28
2018-03-29T12:14:00.902Z,39.37
2018-03-29T12:15:00.886Z,41.74
2018-03-29T12:16:00.882Z,41.77
2018-03-29T12:17:00.833Z,41.57
2018-03-29T12:18:00.796Z,40.71
2018-03-29T12:19:00.802Z,41.77
2018-03-29T12:20:00.808Z,42.34
2018-03-29T12:21:00.762Z,42.53
2018-03-29T12:22:00.748Z,41.84
2018-03-29T12:23:00.715Z,42.76
2018-03-29T12:24:00.708Z,44.00
2018-03-29T12:25:00.709Z,44.55
2018-03-29T12:26:00.667Z,45.15
2018-03-29T12:27:00.651Z,43.63
2018-03-29T12:28:00.671Z,43.47
2018-03-29T12:29:00.631Z,42.49
2018-03-29T12:30:00.603Z,42.76
2018-03-29T12:31:00.595Z,43.79
2018-03-29T12:32:00.570Z,44.93
2018-03-29T12:33:00.598Z,45.39
2018-03-29T12:34:00.536Z,46.03
2018-03-29T12:35:00.513Z,47.08
2018-03-29T12:36:00.494Z,48.90
2018-03-29T12:37:00.515Z,49.28
2018-03-29T12:38:00.468Z,48.68
2018-03-29T12:39:00.441Z,48.66
2018-03-29T12:40:00.458Z,49.80
2018-03-29T12:41:00.442Z,51.43
2018-03-29T12:42:00.403Z,51.26
2018-03-29T12:43:00.407Z,49.40
2018-03-29T12:44:00.364Z,47.37
2018-03-29T12:45:00.414Z,44.45
2018-03-29T12:46:00.344Z,42.07
2018-03-29T12:47:00.322Z,41.48
2018-03-29T12:48:00.299Z,42.05
2018-03-29T12:49:00.296Z,43.51
2018-03-29T12:50:00.252Z,42.21
2018-03-29T12:51:00.275Z,40.05
2018-03-29T12:52:00.255Z,34.95